Big Bear Station Historical Data
Daily Summary for June 20, 2019 Units:  English    Metric   Both
Next Day »
Daily Weekly Monthly Yearly Custom
  High: Low: Average:
Temperature: 75.7 °F 48.9 °F 61.6 °F
Dew Point: 54.7 °F 28.3 °F 43.2 °F
Humidity: 87% 29% 54%
Wind Speed: 5.8mph 0mph 0.9mph
Wind Gust: -999mph - -
Wind- - NW
Pressure: 23.56 in 23.43 in -
Precipitation: 0 in    
Historical Graphs
 
 
Tabular Data for June 20, 2019
Time Temperature Dew Point Pressure Wind Wind Speed Wind Gust Humidity Rainfall Rate (Hourly)
00:11 54.7 °F 40.2 °F 23.56 in Calm   -999 mph 58% 0.00 in
00:27 54.3 °F 39.8 °F 23.56 in Calm   -999 mph 58% 0.00 in
00:42 54.1 °F 40.9 °F 23.56 in Calm   -999 mph 61% 0.00 in
00:57 53.6 °F 41.3 °F 23.55 in Calm   -999 mph 63% 0.00 in
01:12 53.4 °F 42.3 °F 23.55 in Calm   -999 mph 66% 0.00 in
01:28 53.1 °F 43.2 °F 23.55 in Calm   -999 mph 69% 0.00 in
01:43 52.9 °F 43.8 °F 23.54 in Calm   -999 mph 71% 0.00 in
01:58 52.3 °F 43.9 °F 23.54 in Calm   -999 mph 73% 0.00 in
02:13 52.3 °F 45 °F 23.54 in Calm   -999 mph 76% 0.00 in
02:28 52 °F 44.7 °F 23.53 in Calm   -999 mph 76% 0.00 in
02:44 52 °F 44.7 °F 23.53 in Calm   -999 mph 76% 0.00 in
02:59 51.8 °F 45.2 °F 23.53 in Calm   -999 mph 78% 0.00 in
03:14 51.6 °F 46 °F 23.53 in Calm   -999 mph 81% 0.00 in
03:29 51.1 °F 45.5 °F 23.52 in Calm   -999 mph 81% 0.00 in
03:44 50.9 °F 45.6 °F 23.52 in Calm   -999 mph 82% 0.00 in
04:00 50.5 °F 44.9 °F 23.52 in Calm   -999 mph 81% 0.00 in
04:15 50 °F 44.7 °F 23.52 in Calm   -999 mph 82% 0.00 in
04:30 49.8 °F 44.5 °F 23.52 in Calm   -999 mph 82% 0.00 in
04:45 49.8 °F 44.8 °F 23.52 in Calm   -999 mph 83% 0.00 in
05:00 49.3 °F 44.4 °F 23.52 in Calm   -999 mph 83% 0.00 in
05:16 49.3 °F 44.4 °F 23.52 in Calm   -999 mph 83% 0.00 in
05:31 49.1 °F 44.2 °F 23.52 in Calm   -999 mph 83% 0.00 in
05:46 48.9 °F 44.3 °F 23.52 in Calm   -999 mph 84% 0.00 in
06:01 49.3 °F 45 °F 23.52 in Calm   -999 mph 85% 0.00 in
06:16 49.5 °F 45.2 °F 23.52 in Calm   -999 mph 85% 0.00 in
06:32 49.3 °F 45.3 °F 23.52 in Calm   -999 mph 86% 0.00 in
06:47 49.8 °F 46.1 °F 23.52 in Calm   -999 mph 87% 0.00 in
07:02 50.4 °F 46.7 °F 23.51 in Calm   -999 mph 87% 0.00 in
07:17 52.3 °F 48.2 °F 23.52 in Calm   -999 mph 86% 0.00 in
07:33 52.7 °F 48.6 °F 23.51 in Calm   -999 mph 86% 0.00 in
07:48 54.9 °F 47.5 °F 23.51 in Calm   -999 mph 76% 0.00 in
08:03 57.2 °F 45.5 °F 23.51 in Calm   -999 mph 65% 0.00 in
08:18 60.8 °F 46.4 °F 23.52 in Calm   -999 mph 59% 0.00 in
08:33 63 °F 47.1 °F 23.52 in Calm   -999 mph 56% 0.00 in
08:49 64 °F 46.5 °F 23.52 in Calm   -999 mph 53% 0.00 in
09:04 65.1 °F 47 °F 23.52 in Calm   -999 mph 52% 0.00 in
09:19 66.2 °F 47.5 °F 23.52 in Calm   -999 mph 51% 0.00 in
09:34 66.6 °F 47.9 °F 23.52 in NW 1.7 mph -999 mph 51% 0.00 in
09:49 67.1 °F 48.9 °F 23.51 in Calm   -999 mph 52% 0.00 in
10:05 68 °F 49.7 °F 23.51 in WNW 4.2 mph -999 mph 52% 0.00 in
10:20 67.8 °F 51 °F 23.51 in Calm   -999 mph 55% 0.00 in
10:35 67.8 °F 51 °F 23.51 in NNW 1.1 mph -999 mph 55% 0.00 in
10:51 67.8 °F 52.5 °F 23.52 in Calm   -999 mph 58% 0.00 in
11:06 68.5 °F 50.2 °F 23.52 in WNW 2.2 mph -999 mph 52% 0.00 in
11:21 69.6 °F 52.7 °F 23.52 in WNW 1.1 mph -999 mph 55% 0.00 in
11:36 70.2 °F 54.7 °F 23.51 in NW 4.2 mph -999 mph 58% 0.00 in
11:52 71.8 °F 51.6 °F 23.51 in NNW 1.1 mph -999 mph 49% 0.00 in
12:07 73 °F 51 °F 23.51 in NW 5.3 mph -999 mph 46% 0.00 in
12:22 74.5 °F 50.5 °F 23.51 in NW 2.7 mph -999 mph 43% 0.00 in
12:37 74.1 °F 50.2 °F 23.51 in North 2.2 mph -999 mph 43% 0.00 in
12:52 75.2 °F 49.9 °F 23.51 in NNW 3.2 mph -999 mph 41% 0.00 in
13:08 75.2 °F 49.9 °F 23.51 in Calm   -999 mph 41% 0.00 in
13:23 75 °F 48.4 °F 23.51 in Calm   -999 mph 39% 0.00 in
13:38 75 °F 50.4 °F 23.50 in Calm   -999 mph 42% 0.00 in
13:54 75.7 °F 50.3 °F 23.50 in WNW 2.2 mph -999 mph 41% 0.00 in
14:09 75 °F 49 °F 23.50 in Calm   -999 mph 40% 0.00 in
14:24 75.2 °F 47.1 °F 23.50 in North 2.2 mph -999 mph 37% 0.00 in
14:39 74.5 °F 45.1 °F 23.49 in NW 3.2 mph -999 mph 35% 0.00 in
14:54 75 °F 45.5 °F 23.49 in Calm   -999 mph 35% 0.00 in
15:10 73.2 °F 43.9 °F 23.49 in NNW 4.7 mph -999 mph 35% 0.00 in
15:25 74.1 °F 43.2 °F 23.48 in WNW 1.7 mph -999 mph 33% 0.00 in
15:40 72.5 °F 41.8 °F 23.48 in WNW 3.2 mph -999 mph 33% 0.00 in
15:55 72.7 °F 41.1 °F 23.48 in NNW 5.8 mph -999 mph 32% 0.00 in
16:10 72.7 °F 41.1 °F 23.48 in WNW 3.7 mph -999 mph 32% 0.00 in
16:26 72.1 °F 42.9 °F 23.47 in NNW 2.7 mph -999 mph 35% 0.00 in
16:41 73 °F 43 °F 23.47 in Calm   -999 mph 34% 0.00 in
16:56 72.9 °F 38.8 °F 23.47 in NNW 3.7 mph -999 mph 29% 0.00 in
17:11 72.9 °F 42.9 °F 23.47 in NNW 5.8 mph -999 mph 34% 0.00 in
17:27 71.8 °F 38.7 °F 23.46 in SW 5.8 mph -999 mph 30% 0.00 in
17:42 71.6 °F 40.2 °F 23.45 in Calm   -999 mph 32% 0.00 in
17:57 70.7 °F 42.4 °F 23.46 in NW 4.7 mph -999 mph 36% 0.00 in
18:12 69.4 °F 41.3 °F 23.45 in WNW 2.2 mph -999 mph 36% 0.00 in
18:27 69.1 °F 43.1 °F 23.45 in Calm   -999 mph 39% 0.00 in
18:43 68.4 °F 41.8 °F 23.45 in Calm   -999 mph 38% 0.00 in
18:58 66.4 °F 41.3 °F 23.45 in NW 1.1 mph -999 mph 40% 0.00 in
19:13 64 °F 39.2 °F 23.45 in Calm   -999 mph 40% 0.00 in
19:28 60.6 °F 40.8 °F 23.45 in Calm   -999 mph 48% 0.00 in
19:43 58.6 °F 40 °F 23.45 in Calm   -999 mph 50% 0.00 in
19:59 57.4 °F 38.4 °F 23.45 in Calm   -999 mph 49% 0.00 in
20:14 56.7 °F 37.7 °F 23.45 in Calm   -999 mph 49% 0.00 in
20:29 56.1 °F 32.1 °F 23.45 in Calm   -999 mph 40% 0.00 in
20:44 56.7 °F 28.6 °F 23.44 in Calm   -999 mph 34% 0.00 in
20:59 57.2 °F 28.3 °F 23.44 in Calm   -999 mph 33% 0.00 in
21:15 57.2 °F 31.8 °F 23.44 in Calm   -999 mph 38% 0.00 in
21:30 57.2 °F 29.1 °F 23.44 in NW 4.2 mph -999 mph 34% 0.00 in
21:45 56.8 °F 30.8 °F 23.45 in Calm   -999 mph 37% 0.00 in
22:00 56.7 °F 30.7 °F 23.44 in Calm   -999 mph 37% 0.00 in
22:16 56.3 °F 31 °F 23.45 in Calm   -999 mph 38% 0.00 in
22:31 56.5 °F 30.5 °F 23.44 in NNW 1.1 mph -999 mph 37% 0.00 in
22:46 57.2 °F 30.5 °F 23.43 in Calm   -999 mph 36% 0.00 in
23:01 56.8 °F 30.8 °F 23.43 in Calm   -999 mph 37% 0.00 in
23:16 56.7 °F 33.3 °F 23.43 in Calm   -999 mph 41% 0.00 in
23:32 56.1 °F 35.6 °F 23.43 in Calm   -999 mph 46% 0.00 in
23:47 55.6 °F 32.9 °F 23.43 in West 1.1 mph -999 mph 42% 0.00 in
Big Bear CA Weather